createdAt,value
2019-03-13T00:00:54.175Z,58.30
2019-03-13T00:03:23.945Z,59.00
2019-03-13T00:05:53.689Z,59.10
2019-03-13T00:08:23.321Z,60.00
2019-03-13T00:10:53.025Z,60.80
2019-03-13T00:13:22.731Z,62.50
2019-03-13T00:15:52.498Z,62.60
2019-03-13T00:18:22.456Z,60.90
2019-03-13T00:20:52.095Z,60.30
2019-03-13T00:23:21.780Z,63.20
2019-03-13T00:25:51.429Z,63.60
2019-03-13T00:28:21.103Z,63.10
2019-03-13T00:30:50.872Z,63.50
2019-03-13T00:33:20.545Z,63.80
2019-03-13T00:35:50.181Z,64.60
2019-03-13T00:38:19.778Z,65.40
2019-03-13T00:40:49.382Z,65.70
2019-03-13T00:43:19.052Z,65.30
2019-03-13T00:45:48.719Z,66.10
2019-03-13T00:48:18.343Z,66.30
2019-03-13T00:50:47.936Z,65.90
2019-03-13T00:53:17.595Z,63.50
2019-03-13T00:55:47.239Z,61.50
2019-03-13T00:58:16.851Z,60.30
2019-03-13T01:01:03.435Z,61.20
2019-03-13T01:03:55.030Z,59.50
2019-03-13T01:06:30.562Z,59.40
2019-03-13T01:09:00.158Z,60.40
2019-03-13T01:11:29.768Z,61.60
2019-03-13T01:14:00.808Z,61.80
2019-03-13T01:16:30.490Z,61.20
2019-03-13T01:19:00.096Z,61.00
2019-03-13T01:21:29.741Z,61.60
2019-03-13T01:23:59.352Z,62.40
2019-03-13T01:26:48.028Z,63.30
2019-03-13T01:29:17.626Z,64.70
2019-03-13T01:32:09.216Z,64.60
2019-03-13T01:35:00.491Z,63.60
2019-03-13T01:37:30.321Z,60.10
2019-03-13T01:39:59.927Z,60.30
2019-03-13T01:42:29.552Z,60.80
2019-03-13T01:44:59.239Z,61.00
2019-03-13T01:47:28.836Z,61.30
2019-03-13T01:49:58.423Z,62.60
2019-03-13T01:52:32.181Z,62.60
2019-03-13T01:55:00.467Z,62.20
2019-03-13T01:57:30.116Z,62.20
2019-03-13T01:59:59.836Z,62.90
2019-03-13T02:02:29.538Z,62.70
2019-03-13T02:04:59.193Z,60.70
2019-03-13T02:07:28.817Z,58.50
2019-03-13T02:09:58.443Z,57.10
2019-03-13T02:12:28.142Z,57.30
2019-03-13T02:14:57.851Z,58.50
2019-03-13T02:17:27.857Z,58.00
2019-03-13T02:19:57.518Z,57.40
2019-03-13T02:22:27.191Z,57.90
2019-03-13T02:24:59.082Z,58.20
2019-03-13T02:27:28.730Z,58.30
2019-03-13T02:29:58.408Z,59.50
2019-03-13T02:32:28.069Z,61.00
2019-03-13T02:34:57.743Z,61.60
2019-03-13T02:37:27.500Z,61.90
2019-03-13T02:39:57.132Z,61.00
2019-03-13T02:42:26.763Z,62.10
2019-03-13T02:44:56.422Z,59.40
2019-03-13T02:47:26.114Z,58.30
2019-03-13T02:49:55.708Z,58.60
2019-03-13T02:52:25.398Z,59.10
2019-03-13T02:54:55.003Z,59.80
2019-03-13T02:57:24.703Z,60.90
2019-03-13T02:59:54.398Z,60.80
2019-03-13T03:02:34.701Z,60.00
2019-03-13T03:05:04.582Z,60.00
2019-03-13T03:07:34.288Z,59.70
2019-03-13T03:10:03.950Z,58.90
2019-03-13T03:12:33.715Z,59.20
2019-03-13T03:15:05.749Z,58.80
2019-03-13T03:17:35.449Z,58.50
2019-03-13T03:20:06.105Z,57.90
2019-03-13T03:22:35.723Z,60.20
2019-03-13T03:25:05.947Z,61.30
2019-03-13T03:27:35.619Z,61.00
2019-03-13T03:30:06.048Z,60.30
2019-03-13T03:32:35.658Z,61.10
2019-03-13T03:35:05.895Z,61.50
2019-03-13T03:37:36.625Z,61.10
2019-03-13T03:40:07.748Z,62.40
2019-03-13T03:42:37.416Z,61.60
2019-03-13T03:45:07.559Z,61.20
2019-03-13T03:47:37.163Z,60.70
2019-03-13T03:50:07.958Z,61.30
2019-03-13T03:52:37.546Z,60.40
2019-03-13T03:55:07.542Z,60.10
2019-03-13T03:57:37.329Z,59.70
2019-03-13T04:00:07.629Z,59.90
2019-03-13T04:02:37.246Z,60.30
2019-03-13T04:05:07.279Z,59.50
2019-03-13T04:07:37.022Z,59.80
2019-03-13T04:10:07.097Z,60.90
2019-03-13T04:12:36.782Z,63.40
2019-03-13T04:15:06.821Z,63.20
2019-03-13T04:17:36.498Z,61.20
2019-03-13T04:20:07.757Z,59.90
2019-03-13T04:22:37.384Z,60.50
2019-03-13T04:25:17.669Z,61.10
2019-03-13T04:27:47.255Z,61.00
2019-03-13T04:30:16.843Z,60.40
2019-03-13T04:32:46.491Z,61.60
2019-03-13T04:35:16.119Z,61.90
2019-03-13T04:37:45.834Z,62.30
2019-03-13T04:40:15.491Z,62.60
2019-03-13T04:42:45.114Z,63.10
2019-03-13T04:45:14.792Z,63.10
2019-03-13T04:47:44.400Z,61.80
2019-03-13T04:50:14.490Z,62.80
2019-03-13T04:52:44.189Z,64.00
2019-03-13T04:55:14.119Z,64.00
2019-03-13T04:57:43.770Z,63.40
2019-03-13T05:00:14.129Z,63.90
2019-03-13T05:02:43.762Z,66.60
2019-03-13T05:05:48.452Z,65.90
2019-03-13T05:08:45.350Z,78.90
2019-03-13T05:11:12.682Z,99.90
2019-03-13T05:13:42.437Z,97.60
2019-03-13T05:16:12.046Z,74.90
2019-03-13T05:18:41.723Z,67.10
2019-03-13T05:21:11.368Z,68.10
2019-03-13T05:23:42.478Z,66.50
2019-03-13T05:26:12.139Z,66.60
2019-03-13T05:28:41.845Z,68.20
2019-03-13T05:31:11.440Z,71.20
2019-03-13T05:33:41.043Z,71.90
2019-03-13T05:36:10.671Z,71.40
2019-03-13T05:38:40.351Z,70.70
2019-03-13T05:41:09.940Z,71.70
2019-03-13T05:43:39.756Z,71.00
2019-03-13T05:46:09.469Z,67.80
2019-03-13T05:48:39.029Z,68.90
2019-03-13T05:51:08.683Z,69.90
2019-03-13T05:53:38.438Z,69.60
2019-03-13T05:56:08.081Z,68.40
2019-03-13T05:58:37.707Z,67.50
2019-03-13T06:01:07.469Z,68.50
2019-03-13T06:03:37.084Z,70.30
2019-03-13T06:06:06.705Z,70.50
2019-03-13T06:08:36.394Z,69.20
2019-03-13T06:11:06.138Z,70.30
2019-03-13T06:13:35.762Z,69.10
2019-03-13T06:16:05.414Z,69.00
2019-03-13T06:18:35.013Z,69.00
2019-03-13T06:21:04.643Z,68.70
2019-03-13T06:23:34.289Z,65.20
2019-03-13T06:26:03.928Z,65.80
2019-03-13T06:28:33.562Z,64.60
2019-03-13T06:31:03.188Z,63.90
2019-03-13T06:33:32.893Z,64.80
2019-03-13T06:36:02.544Z,63.20
2019-03-13T06:38:32.256Z,62.40
2019-03-13T06:41:05.012Z,61.10
2019-03-13T06:43:33.380Z,60.80
2019-03-13T06:46:03.112Z,61.80
2019-03-13T06:48:32.826Z,64.60
2019-03-13T06:51:02.460Z,65.60
2019-03-13T06:53:32.092Z,67.20
2019-03-13T06:56:01.707Z,65.50
2019-03-13T06:58:40.706Z,64.40
2019-03-13T07:01:32.531Z,64.50
2019-03-13T07:04:15.381Z,63.00
2019-03-13T07:07:01.096Z,61.90
2019-03-13T07:09:39.787Z,61.60
2019-03-13T07:12:18.363Z,61.80
2019-03-13T07:15:09.915Z,65.30
2019-03-13T07:17:46.376Z,65.10
2019-03-13T07:20:37.961Z,63.20
2019-03-13T07:23:32.627Z,62.40
2019-03-13T07:26:26.773Z,63.00
2019-03-13T07:29:15.298Z,62.90
2019-03-13T07:32:02.486Z,63.10
2019-03-13T07:34:45.548Z,62.80
2019-03-13T07:37:52.450Z,64.40
2019-03-13T07:40:41.684Z,63.90
2019-03-13T07:43:32.138Z,63.90
2019-03-13T07:46:17.602Z,62.40
2019-03-13T07:49:15.457Z,61.50
2019-03-13T07:51:51.804Z,58.70
2019-03-13T07:54:31.279Z,57.70
2019-03-13T07:57:35.225Z,55.90
2019-03-13T08:00:17.620Z,55.90
2019-03-13T08:03:04.866Z,54.50
2019-03-13T08:05:54.890Z,53.80
2019-03-13T08:08:49.272Z,55.10
2019-03-13T08:11:34.753Z,55.00
2019-03-13T08:14:16.453Z,53.40
2019-03-13T08:17:14.138Z,52.90
2019-03-13T08:20:11.540Z,51.30
2019-03-13T08:23:06.156Z,53.80
2019-03-13T08:25:44.235Z,52.40
2019-03-13T08:28:33.535Z,49.40
2019-03-13T08:31:28.130Z,49.00
2019-03-13T08:34:14.831Z,50.00
2019-03-13T08:37:03.375Z,49.60
2019-03-13T08:39:57.984Z,48.70
2019-03-13T08:42:42.080Z,47.50
2019-03-13T08:45:30.809Z,46.60
2019-03-13T08:48:19.118Z,46.50
2019-03-13T08:51:06.282Z,45.90
2019-03-13T08:53:57.769Z,44.40
2019-03-13T08:56:31.679Z,43.70
2019-03-13T08:59:18.498Z,44.40
2019-03-13T09:02:19.398Z,45.70
2019-03-13T09:05:05.900Z,45.10
2019-03-13T09:07:55.506Z,44.50
2019-03-13T09:10:47.058Z,43.40
2019-03-13T09:13:42.083Z,43.50
2019-03-13T09:16:33.768Z,41.40
2019-03-13T09:19:22.096Z,40.80
2019-03-13T09:22:00.171Z,42.00
2019-03-13T09:24:47.597Z,40.60
2019-03-13T09:27:39.328Z,40.40
2019-03-13T09:30:27.577Z,40.40
2019-03-13T09:33:30.662Z,39.90
2019-03-13T09:36:17.708Z,40.50
2019-03-13T09:39:07.655Z,39.70
2019-03-13T09:41:53.051Z,39.70
2019-03-13T09:44:53.930Z,39.40
2019-03-13T09:47:46.031Z,37.70
2019-03-13T09:50:26.673Z,37.80
2019-03-13T09:53:33.322Z,37.60
2019-03-13T09:56:26.400Z,37.70
2019-03-13T09:59:12.207Z,37.90
2019-03-13T10:02:03.611Z,38.40
2019-03-13T10:05:02.169Z,39.30
2019-03-13T10:07:51.892Z,38.70
2019-03-13T10:10:37.343Z,39.20
2019-03-13T10:13:24.580Z,38.30
2019-03-13T10:16:13.259Z,38.60
2019-03-13T10:18:59.256Z,38.30
2019-03-13T10:21:46.817Z,36.80
2019-03-13T10:24:34.372Z,37.50
2019-03-13T10:27:14.799Z,37.70
2019-03-13T10:30:06.255Z,37.70
2019-03-13T10:32:44.271Z,36.80
2019-03-13T10:35:33.982Z,36.50
2019-03-13T10:38:21.298Z,36.20
2019-03-13T10:41:02.958Z,35.00
2019-03-13T10:44:00.657Z,34.90
2019-03-13T10:46:39.454Z,35.40
2019-03-13T10:49:40.170Z,35.40
2019-03-13T10:52:31.568Z,35.70
2019-03-13T10:55:08.006Z,36.10
2019-03-13T10:58:14.930Z,36.10
2019-03-13T11:01:03.503Z,36.20
2019-03-13T11:04:00.426Z,35.60
2019-03-13T11:06:55.287Z,36.60
2019-03-13T11:09:47.050Z,36.50
2019-03-13T11:12:34.151Z,35.50
2019-03-13T11:15:15.246Z,35.60
2019-03-13T11:18:22.033Z,34.80
2019-03-13T11:21:19.591Z,34.30
2019-03-13T11:24:10.988Z,34.40
2019-03-13T11:27:11.678Z,34.60
2019-03-13T11:30:03.150Z,34.70
2019-03-13T11:32:51.750Z,34.70
2019-03-13T11:35:33.747Z,34.80
2019-03-13T11:38:21.150Z,33.50
2019-03-13T11:41:01.826Z,33.60
2019-03-13T11:43:57.836Z,33.20
2019-03-13T11:46:49.232Z,33.40
2019-03-13T11:49:36.269Z,33.10
2019-03-13T11:52:23.399Z,32.90
2019-03-13T11:55:16.052Z,34.00
2019-03-13T11:57:53.544Z,34.50
2019-03-13T12:00:34.482Z,33.30
2019-03-13T12:03:29.411Z,34.80
2019-03-13T12:06:16.754Z,33.30
2019-03-13T12:09:08.175Z,34.00
2019-03-13T12:11:59.475Z,33.80
2019-03-13T12:14:46.989Z,34.00
2019-03-13T12:17:25.398Z,34.10
2019-03-13T12:20:32.145Z,33.80
2019-03-13T12:23:20.747Z,33.60
2019-03-13T12:26:21.292Z,32.40
2019-03-13T12:29:03.870Z,32.70
2019-03-13T12:31:49.555Z,32.70
2019-03-13T12:34:41.196Z,33.10
2019-03-13T12:37:28.740Z,33.40
2019-03-13T12:40:23.364Z,34.60
2019-03-13T12:43:10.478Z,34.10
2019-03-13T12:45:53.304Z,34.60
2019-03-13T12:48:44.646Z,35.00
2019-03-13T12:51:32.156Z,35.50
2019-03-13T12:54:15.086Z,35.10
2019-03-13T12:57:13.181Z,35.10
2019-03-13T13:00:12.506Z,35.10
2019-03-13T13:03:07.049Z,35.80
2019-03-13T13:05:48.465Z,35.00
2019-03-13T13:08:37.095Z,35.70
2019-03-13T13:11:34.698Z,36.10
2019-03-13T13:14:29.100Z,35.90
2019-03-13T13:17:11.577Z,36.50
2019-03-13T13:19:41.235Z,35.70
2019-03-13T13:22:10.861Z,36.20
2019-03-13T13:24:40.527Z,36.00
2019-03-13T13:27:10.250Z,35.80
2019-03-13T13:29:39.920Z,36.40
2019-03-13T13:32:09.610Z,36.10
2019-03-13T13:34:39.349Z,35.70
2019-03-13T13:37:08.939Z,35.50
2019-03-13T13:39:38.722Z,35.60
2019-03-13T13:42:08.412Z,35.70
2019-03-13T13:44:38.024Z,36.20
2019-03-13T13:47:07.769Z,35.80
2019-03-13T13:49:37.380Z,36.80
2019-03-13T13:52:07.071Z,36.80
2019-03-13T13:54:36.822Z,36.00
2019-03-13T13:57:06.446Z,35.90
2019-03-13T13:59:36.108Z,35.30
2019-03-13T14:02:05.811Z,35.50
2019-03-13T14:04:35.510Z,36.20
2019-03-13T14:07:05.201Z,37.30
2019-03-13T14:09:34.905Z,39.30
2019-03-13T14:12:04.905Z,40.00
2019-03-13T14:14:34.546Z,41.10
2019-03-13T14:17:04.227Z,41.90
2019-03-13T14:19:33.846Z,41.90
2019-03-13T14:22:03.483Z,42.50
2019-03-13T14:24:33.146Z,42.60
2019-03-13T14:27:13.875Z,42.90
2019-03-13T14:29:34.046Z,43.10
2019-03-13T14:32:03.687Z,42.70
2019-03-13T14:34:33.362Z,42.50
2019-03-13T14:37:02.949Z,42.20
2019-03-13T14:39:32.600Z,42.60
2019-03-13T14:42:02.243Z,42.90
2019-03-13T14:44:31.869Z,42.80
2019-03-13T14:47:01.548Z,41.60
2019-03-13T14:49:31.245Z,42.30
2019-03-13T14:52:00.841Z,42.50
2019-03-13T14:54:30.554Z,42.40
2019-03-13T14:57:00.164Z,42.40
2019-03-13T14:59:29.804Z,42.00
2019-03-13T15:01:59.433Z,42.40
2019-03-13T15:04:29.142Z,42.90
2019-03-13T15:06:58.887Z,42.90
2019-03-13T15:09:28.589Z,43.30
2019-03-13T15:11:58.215Z,43.90
2019-03-13T15:14:27.927Z,44.40
2019-03-13T15:16:57.894Z,44.90
2019-03-13T15:19:28.865Z,45.00
2019-03-13T15:21:58.516Z,45.30
2019-03-13T15:24:28.205Z,45.50
2019-03-13T15:26:57.861Z,46.00
2019-03-13T15:29:27.556Z,46.10
2019-03-13T15:31:57.284Z,46.00
2019-03-13T15:34:26.938Z,46.00
2019-03-13T15:36:56.641Z,46.50
2019-03-13T15:39:28.804Z,46.80
2019-03-13T15:41:58.555Z,47.10
2019-03-13T15:44:28.194Z,47.00
2019-03-13T15:46:57.981Z,46.40
2019-03-13T15:49:27.590Z,46.90
2019-03-13T15:51:57.192Z,47.00
2019-03-13T15:54:26.931Z,47.00
2019-03-13T15:56:56.680Z,47.30
2019-03-13T15:59:26.395Z,47.10
2019-03-13T16:01:56.154Z,47.20
2019-03-13T16:04:25.812Z,47.50
2019-03-13T16:06:55.549Z,47.90
2019-03-13T16:09:25.208Z,48.20
2019-03-13T16:11:54.936Z,48.30
2019-03-13T16:14:24.598Z,48.50
2019-03-13T16:16:54.232Z,48.80
2019-03-13T16:19:23.855Z,49.30
2019-03-13T16:21:53.445Z,48.40
2019-03-13T16:24:23.160Z,47.90
2019-03-13T16:26:52.785Z,48.30
2019-03-13T16:29:22.398Z,48.80
2019-03-13T16:31:52.058Z,49.40
2019-03-13T16:34:21.672Z,50.00
2019-03-13T16:36:51.299Z,50.70
2019-03-13T16:39:21.275Z,51.20
2019-03-13T16:41:50.898Z,51.70
2019-03-13T16:44:20.550Z,52.00
2019-03-13T16:46:50.187Z,52.40
2019-03-13T16:49:19.806Z,52.50
2019-03-13T16:51:49.415Z,52.30
2019-03-13T16:54:19.045Z,52.70
2019-03-13T16:56:48.627Z,53.30
2019-03-13T16:59:18.310Z,54.50
2019-03-13T17:01:48.032Z,55.30
2019-03-13T17:04:17.756Z,55.50
2019-03-13T17:06:47.403Z,56.40
2019-03-13T17:09:17.188Z,57.10
2019-03-13T17:11:46.921Z,57.80
2019-03-13T17:14:16.711Z,59.00
2019-03-13T17:16:46.556Z,59.00
2019-03-13T17:19:16.203Z,60.80
2019-03-13T17:21:46.257Z,62.10
2019-03-13T17:24:15.946Z,62.10
2019-03-13T17:26:46.403Z,62.90
2019-03-13T17:29:16.356Z,65.00
2019-03-13T17:31:46.121Z,66.00
2019-03-13T17:34:15.926Z,66.50
2019-03-13T17:36:47.704Z,69.10
2019-03-13T17:39:17.535Z,70.90
2019-03-13T17:41:47.964Z,73.30
2019-03-13T17:44:17.822Z,74.90
2019-03-13T17:46:47.442Z,77.00
2019-03-13T17:49:17.137Z,79.20
2019-03-13T17:51:48.376Z,80.30
2019-03-13T17:54:18.279Z,82.10
2019-03-13T17:56:48.063Z,82.00
2019-03-13T17:59:17.760Z,82.10
2019-03-13T18:01:47.407Z,82.30
2019-03-13T18:04:17.010Z,80.90
2019-03-13T18:06:47.119Z,80.40
2019-03-13T18:09:16.876Z,80.80
2019-03-13T18:11:46.591Z,81.00
2019-03-13T18:14:16.308Z,81.60
2019-03-13T18:16:45.990Z,82.80
2019-03-13T18:19:15.616Z,83.40
2019-03-13T18:21:45.267Z,84.30
2019-03-13T18:24:14.939Z,86.90
2019-03-13T18:26:44.611Z,90.00
2019-03-13T18:29:14.238Z,91.30
2019-03-13T18:31:43.868Z,92.20
2019-03-13T18:34:13.452Z,92.90
2019-03-13T18:36:52.856Z,93.60
2019-03-13T18:39:22.513Z,92.70
2019-03-13T18:41:52.162Z,93.30
2019-03-13T18:44:21.914Z,94.40
2019-03-13T18:46:51.575Z,94.80
2019-03-13T18:49:21.239Z,95.60
2019-03-13T18:51:50.876Z,95.30
2019-03-13T18:54:20.519Z,94.70
2019-03-13T18:56:50.262Z,94.40
2019-03-13T18:59:19.982Z,94.30
2019-03-13T19:01:49.599Z,94.10
2019-03-13T19:04:19.334Z,94.20
2019-03-13T19:06:49.019Z,94.30
2019-03-13T19:09:18.649Z,94.60
2019-03-13T19:11:48.289Z,95.50
2019-03-13T19:14:17.923Z,95.60
2019-03-13T19:16:47.596Z,95.80
2019-03-13T19:19:17.303Z,97.70
2019-03-13T19:21:47.067Z,97.50
2019-03-13T19:24:16.724Z,98.40
2019-03-13T19:26:46.352Z,98.00
2019-03-13T19:29:16.029Z,97.50
2019-03-13T19:31:45.647Z,97.90
2019-03-13T19:34:15.265Z,98.70
2019-03-13T19:36:44.907Z,99.60
2019-03-13T19:39:14.538Z,99.90
2019-03-13T19:41:44.267Z,99.90
2019-03-13T19:44:13.884Z,99.90
2019-03-13T19:46:43.608Z,99.90
2019-03-13T19:49:13.287Z,99.90
2019-03-13T19:51:42.945Z,99.90
2019-03-13T19:54:12.590Z,99.90
2019-03-13T19:56:42.214Z,99.90
2019-03-13T19:59:11.888Z,99.90
2019-03-13T20:01:41.604Z,99.90
2019-03-13T20:04:11.312Z,99.90
2019-03-13T20:06:42.410Z,99.90
2019-03-13T20:09:12.398Z,99.90
2019-03-13T20:11:42.056Z,99.90
2019-03-13T20:14:12.820Z,99.90
2019-03-13T20:16:42.444Z,99.90
2019-03-13T20:19:12.198Z,99.90
2019-03-13T20:21:41.887Z,99.90
2019-03-13T20:24:11.613Z,99.90
2019-03-13T20:26:41.265Z,99.90
2019-03-13T20:29:10.925Z,99.90
2019-03-13T20:31:40.592Z,99.90
2019-03-13T20:34:10.232Z,99.90
2019-03-13T20:36:39.888Z,99.90
2019-03-13T20:39:09.624Z,99.90
2019-03-13T20:41:39.363Z,99.90
2019-03-13T20:44:09.099Z,99.90
2019-03-13T20:46:38.814Z,99.90
2019-03-13T20:49:08.430Z,99.90
2019-03-13T20:51:38.108Z,99.90
2019-03-13T20:54:07.886Z,99.90
2019-03-13T20:56:37.587Z,99.90
2019-03-13T20:59:07.259Z,99.90
2019-03-13T21:01:37.029Z,99.90
2019-03-13T21:04:07.745Z,99.90
2019-03-13T21:06:37.656Z,99.90
2019-03-13T21:09:07.563Z,99.90
2019-03-13T21:11:37.339Z,99.90
2019-03-13T21:14:07.160Z,99.90
2019-03-13T21:16:36.803Z,99.90
2019-03-13T21:19:06.461Z,99.90
2019-03-13T21:21:36.098Z,99.90
2019-03-13T21:24:05.843Z,99.90
2019-03-13T21:26:35.559Z,99.90
2019-03-13T21:29:05.330Z,99.90
2019-03-13T21:31:35.081Z,99.90
2019-03-13T21:34:04.807Z,99.90
2019-03-13T21:36:34.574Z,99.90
2019-03-13T21:39:05.739Z,99.90
2019-03-13T21:41:35.758Z,99.90
2019-03-13T21:44:05.541Z,99.90
2019-03-13T21:46:35.263Z,99.90
2019-03-13T21:49:08.330Z,99.90
2019-03-13T21:51:38.622Z,99.90
2019-03-13T21:54:08.276Z,99.90
2019-03-13T21:56:37.923Z,99.90
2019-03-13T21:59:07.562Z,99.90
2019-03-13T22:01:37.194Z,99.90
2019-03-13T22:04:07.979Z,99.90
2019-03-13T22:06:37.725Z,99.90
2019-03-13T22:09:07.596Z,99.90
2019-03-13T22:11:37.214Z,99.90
2019-03-13T22:14:06.861Z,99.90
2019-03-13T22:16:36.484Z,99.90
2019-03-13T22:19:06.082Z,99.90
2019-03-13T22:21:35.723Z,99.90
2019-03-13T22:24:05.412Z,99.90
2019-03-13T22:26:35.050Z,99.90
2019-03-13T22:29:04.696Z,99.90
2019-03-13T22:31:34.318Z,99.90
2019-03-13T22:34:03.960Z,99.90
2019-03-13T22:36:33.582Z,99.90
2019-03-13T22:39:03.211Z,99.90
2019-03-13T22:41:32.890Z,99.90
2019-03-13T22:44:02.522Z,99.90
2019-03-13T22:46:32.233Z,99.90
2019-03-13T22:49:01.919Z,99.90
2019-03-13T22:51:31.638Z,99.90
2019-03-13T22:54:01.265Z,99.90
2019-03-13T22:56:30.883Z,99.90
2019-03-13T22:59:00.556Z,99.90
2019-03-13T23:01:30.654Z,99.90
2019-03-13T23:04:00.387Z,99.90
2019-03-13T23:06:30.016Z,99.90
2019-03-13T23:08:59.663Z,99.90
2019-03-13T23:11:29.287Z,99.90
2019-03-13T23:13:58.939Z,99.90
2019-03-13T23:16:28.558Z,99.90
2019-03-13T23:18:58.195Z,99.90
2019-03-13T23:21:27.872Z,99.90
2019-03-13T23:23:57.506Z,99.90
2019-03-13T23:26:27.168Z,99.90
2019-03-13T23:28:56.813Z,99.90
2019-03-13T23:31:26.422Z,99.90
2019-03-13T23:33:56.056Z,99.90
2019-03-13T23:36:25.703Z,99.90
2019-03-13T23:38:55.308Z,99.90
2019-03-13T23:41:24.976Z,99.90
2019-03-13T23:43:54.884Z,99.90
2019-03-13T23:46:24.508Z,99.90
2019-03-13T23:48:54.303Z,99.90
2019-03-13T23:51:23.940Z,99.90
2019-03-13T23:53:53.606Z,99.90
2019-03-13T23:56:23.216Z,99.90
2019-03-13T23:58:52.931Z,99.90
